TAF Text Data
IDs:
Format:
Raw Decoded Include METAR

Data at: 0301 UTC 23 Sep 2018

KFST 230253Z AUTO 10003KT 10SM CLR 19/13 A3013 RMK AO2 SLP170 T01940133 53010

KFST 222320Z 2300/2324 04005KT P6SM SCT050